createdAt,value
2018-10-07T00:02:28.789Z,12.04
2018-10-07T00:08:19.658Z,12.96
2018-10-07T00:14:10.571Z,14.18
2018-10-07T00:20:01.434Z,13.36
2018-10-07T00:25:52.297Z,14.31
2018-10-07T00:31:43.205Z,14.59
2018-10-07T00:37:34.080Z,13.79
2018-10-07T00:43:24.965Z,16.15
2018-10-07T00:49:15.850Z,15.21
2018-10-07T00:55:06.852Z,15.72
2018-10-07T01:00:57.620Z,15.21
2018-10-07T01:06:48.479Z,14.4
2018-10-07T01:12:39.349Z,15.3
2018-10-07T01:18:30.236Z,15.88
2018-10-07T01:24:21.133Z,16.82
2018-10-07T01:30:11.980Z,17.18
2018-10-07T01:36:02.862Z,18.15
2018-10-07T01:41:53.841Z,17.84
2018-10-07T01:47:44.608Z,19.18
2018-10-07T01:53:35.482Z,18.7
2018-10-07T01:59:26.446Z,18.47
2018-10-07T02:05:17.278Z,16.51
2018-10-07T02:11:08.189Z,16.49
2018-10-07T02:16:59.007Z,16.45
2018-10-07T02:22:49.890Z,14.44
2018-10-07T02:28:40.790Z,15.08
2018-10-07T02:34:31.731Z,15.83
2018-10-07T02:40:22.547Z,16.27
2018-10-07T02:46:13.454Z,16.29
2018-10-07T02:52:04.335Z,17.89
2018-10-07T02:57:55.222Z,17.44
2018-10-07T03:03:46.055Z,16.75
2018-10-07T03:09:36.949Z,16.52
2018-10-07T03:15:27.889Z,15.44
2018-10-07T03:21:18.708Z,16.38
2018-10-07T03:27:09.576Z,15.06
2018-10-07T03:33:00.476Z,13.12
2018-10-07T03:38:51.334Z,11.13
2018-10-07T03:44:42.270Z,11.22
2018-10-07T03:50:33.107Z,10.11
2018-10-07T03:56:24.039Z,10.58
2018-10-07T04:02:14.860Z,10.44
2018-10-07T04:08:05.752Z,9.41
2018-10-07T04:13:56.636Z,9.14
2018-10-07T04:19:47.544Z,8.85
2018-10-07T04:25:38.372Z,8.45
2018-10-07T04:31:29.270Z,9.23
2018-10-07T04:37:20.152Z,10.21
2018-10-07T04:43:11.009Z,11.64
2018-10-07T04:49:01.918Z,13.3
2018-10-07T04:54:52.828Z,13.12
2018-10-07T05:00:43.719Z,13.69
2018-10-07T05:06:34.536Z,13.18
2018-10-07T05:12:25.485Z,13.97
2018-10-07T05:18:16.369Z,12.7
2018-10-07T05:24:07.183Z,12.39
2018-10-07T05:29:58.057Z,13.97
2018-10-07T05:35:48.947Z,11.83
2018-10-07T05:41:39.826Z,9.55
2018-10-07T05:47:30.716Z,9.57
2018-10-07T05:53:21.559Z,9.68
2018-10-07T05:59:12.467Z,8.7
2018-10-07T06:05:03.330Z,9.48
2018-10-07T06:10:54.205Z,7.17
2018-10-07T06:16:45.092Z,7
2018-10-07T06:22:35.978Z,6.96
2018-10-07T06:28:26.860Z,7.4
2018-10-07T06:34:17.713Z,6.77
2018-10-07T06:40:08.636Z,6.51
2018-10-07T06:45:59.623Z,8.44
2018-10-07T06:51:50.384Z,6.99
2018-10-07T06:57:41.264Z,7.21
2018-10-07T07:03:32.110Z,11.05
2018-10-07T07:09:23.020Z,8.76
2018-10-07T07:15:13.941Z,7.89
2018-10-07T07:21:04.836Z,5.59
2018-10-07T07:26:55.665Z,3.79
2018-10-07T07:32:46.626Z,3.64
2018-10-07T07:38:37.395Z,2.96
2018-10-07T07:44:28.310Z,3.11
2018-10-07T07:50:19.233Z,3.06
2018-10-07T07:56:10.048Z,3.21
2018-10-07T08:02:00.991Z,5.76
2018-10-07T08:07:51.810Z,6.45
2018-10-07T08:13:42.685Z,5.7
2018-10-07T08:19:33.567Z,4.98
2018-10-07T08:25:24.491Z,4.37
2018-10-07T08:31:15.328Z,5.47
2018-10-07T08:37:06.459Z,13.45
2018-10-07T08:42:57.091Z,11.43
2018-10-07T08:48:47.982Z,11.88
2018-10-07T08:54:38.894Z,12.71
2018-10-07T09:00:29.782Z,11.68
2018-10-07T09:06:20.723Z,11.75
2018-10-07T09:12:11.553Z,10.32
2018-10-07T09:18:02.487Z,9.46
2018-10-07T09:23:53.302Z,6.12
2018-10-07T09:29:44.206Z,5.15
2018-10-07T09:35:35.087Z,6.04
2018-10-07T09:41:25.975Z,5.97
2018-10-07T09:47:16.920Z,5.89
2018-10-07T09:53:07.760Z,5.78
2018-10-07T09:58:58.673Z,5.43
2018-10-07T10:04:49.559Z,5.49
2018-10-07T10:10:40.440Z,5.19
2018-10-07T10:16:31.341Z,5.51
2018-10-07T10:22:22.241Z,7.33
2018-10-07T10:28:13.168Z,5.57
2018-10-07T10:34:04.028Z,5.71
2018-10-07T10:39:54.993Z,5.91
2018-10-07T10:45:45.829Z,5.46
2018-10-07T10:51:36.742Z,4.82
2018-10-07T10:57:27.648Z,4.89
2018-10-07T11:03:18.544Z,4.51
2018-10-07T11:09:09.483Z,4.19
2018-10-07T11:15:00.351Z,3.97
2018-10-07T11:20:51.292Z,4.43
2018-10-07T11:26:42.171Z,4.16
2018-10-07T11:32:33.083Z,4.57
2018-10-07T11:38:23.967Z,4.18
2018-10-07T11:44:14.921Z,3.99
2018-10-07T11:50:05.825Z,4.64
2018-10-07T11:55:56.721Z,4.7
2018-10-07T12:01:47.661Z,5.4
2018-10-07T12:07:38.561Z,4.96
2018-10-07T12:13:29.440Z,5.11
2018-10-07T12:19:20.338Z,4.86
2018-10-07T12:25:11.268Z,5.37
2018-10-07T12:31:02.183Z,4.77
2018-10-07T12:36:53.090Z,5.02
2018-10-07T12:42:44.047Z,5.8
2018-10-07T12:48:34.911Z,5.55
2018-10-07T12:54:25.884Z,4.76
2018-10-07T13:00:16.719Z,4.73
2018-10-07T13:06:07.680Z,4.97
2018-10-07T13:11:58.550Z,4.68
2018-10-07T13:17:49.478Z,4.53
2018-10-07T13:23:40.377Z,4.47
2018-10-07T13:29:31.334Z,4.44
2018-10-07T13:35:22.187Z,4.99
2018-10-07T13:41:13.100Z,4.07
2018-10-07T13:47:04.064Z,4.03
2018-10-07T13:52:54.945Z,4.01
2018-10-07T13:58:45.832Z,3.83
2018-10-07T14:04:36.756Z,4.13
2018-10-07T14:10:27.693Z,3.95
2018-10-07T14:16:18.573Z,3.2
2018-10-07T14:22:09.506Z,4.86
2018-10-07T14:28:00.407Z,3.81
2018-10-07T14:33:51.311Z,3.88
2018-10-07T14:39:42.196Z,3.9
2018-10-07T14:45:33.109Z,3.88
2018-10-07T14:51:24.045Z,4.06
2018-10-07T14:57:14.941Z,4.25
2018-10-07T15:03:05.820Z,4.29
2018-10-07T15:08:56.745Z,3.74
2018-10-07T15:14:47.639Z,3.87
2018-10-07T15:20:38.536Z,3.65
2018-10-07T15:26:29.462Z,3.93
2018-10-07T15:32:20.394Z,3.39
2018-10-07T15:38:11.279Z,3.6
2018-10-07T15:44:02.221Z,4.15
2018-10-07T15:49:53.128Z,4.02
2018-10-07T15:55:44.008Z,3.68
2018-10-07T16:01:34.924Z,3.72
2018-10-07T16:07:25.829Z,3.93
2018-10-07T16:13:16.733Z,3.85
2018-10-07T16:19:07.638Z,4.34
2018-10-07T16:24:58.532Z,4.98
2018-10-07T16:30:49.529Z,4.3
2018-10-07T16:36:40.373Z,4.39
2018-10-07T16:42:31.250Z,4.66
2018-10-07T16:48:22.179Z,4.94
2018-10-07T16:54:13.074Z,4.49
2018-10-07T17:00:03.954Z,4.72
2018-10-07T17:05:54.861Z,4.37
2018-10-07T17:11:45.773Z,4.8
2018-10-07T17:17:36.666Z,4.35
2018-10-07T17:23:27.560Z,4.97
2018-10-07T17:29:18.437Z,5.89
2018-10-07T17:35:09.357Z,7.12
2018-10-07T17:41:00.276Z,6.09
2018-10-07T17:46:51.186Z,4.8
2018-10-07T17:52:42.078Z,5.18
2018-10-07T17:58:32.960Z,6.07
2018-10-07T18:04:23.823Z,6.37
2018-10-07T18:10:14.772Z,5.66
2018-10-07T18:16:05.642Z,5.98
2018-10-07T18:21:56.710Z,5.22
2018-10-07T18:27:47.448Z,5.67
2018-10-07T18:33:38.338Z,5.31
2018-10-07T18:39:29.269Z,5.76
2018-10-07T18:45:20.082Z,5.96
2018-10-07T18:51:10.995Z,5.9
2018-10-07T18:57:01.924Z,6.13
2018-10-07T19:02:52.973Z,5.41
2018-10-07T19:08:43.706Z,5.87
2018-10-07T19:14:34.633Z,5.31
2018-10-07T19:20:25.475Z,4.86
2018-10-07T19:26:16.392Z,5.12
2018-10-07T19:32:07.297Z,5.22
2018-10-07T19:37:58.157Z,5.55
2018-10-07T19:43:49.067Z,6.47
2018-10-07T19:49:39.965Z,7.9
2018-10-07T19:55:30.826Z,7.09
2018-10-07T20:01:21.740Z,7.55
2018-10-07T20:07:12.613Z,6.78
2018-10-07T20:13:03.477Z,6.59
2018-10-07T20:18:54.368Z,6.79
2018-10-07T20:24:45.256Z,7.13
2018-10-07T20:30:36.147Z,7.85
2018-10-07T20:36:27.058Z,7.3
2018-10-07T20:42:17.981Z,7.15
2018-10-07T20:48:08.832Z,7.41
2018-10-07T20:53:59.713Z,7.04
2018-10-07T20:59:50.596Z,6.98
2018-10-07T21:05:41.487Z,6.9
2018-10-07T21:11:32.370Z,6.57
2018-10-07T21:17:23.295Z,6.68
2018-10-07T21:23:14.151Z,7.11
2018-10-07T21:29:05.346Z,6.16
2018-10-07T21:34:55.930Z,6.48
2018-10-07T21:40:46.847Z,6.56
2018-10-07T21:46:38.069Z,6.05
2018-10-07T21:52:28.722Z,6.49
2018-10-07T21:58:19.464Z,6.52
2018-10-07T22:04:10.405Z,6.76
2018-10-07T22:10:01.291Z,6.35
2018-10-07T22:15:52.137Z,7.01
2018-10-07T22:21:43.049Z,8.35
2018-10-07T22:27:33.951Z,8.52
2018-10-07T22:33:24.768Z,8.36
2018-10-07T22:39:15.687Z,7.56
2018-10-07T22:45:06.552Z,7.5
2018-10-07T22:50:57.481Z,7.85
2018-10-07T22:56:48.346Z,6.89
2018-10-07T23:02:39.229Z,7.51
2018-10-07T23:08:30.135Z,7.25
2018-10-07T23:14:21.043Z,6.74
2018-10-07T23:20:11.880Z,6.79
2018-10-07T23:26:02.781Z,6.94
2018-10-07T23:31:53.652Z,7.14
2018-10-07T23:37:44.544Z,7.35
2018-10-07T23:43:35.435Z,7.3
2018-10-07T23:49:26.307Z,7.86
2018-10-07T23:55:17.200Z,7.46
